Time;durP1;ratioP1;P1;durP2;ratioP2;P2;SDS_P1;SDS_P2;PMS_P1;PMS_P2;Temp;Humidity;BMP_temperature;BMP_pressure;BME280_temperature;BME280_humidity;BME280_pressure;Samples;Min_cycle;Max_cycle;Signal;HPM_P1;HPM_P2
2022/01/05 00:01:31;;;;;;;;;;;13.10;99.90;;;;;;5004417;28;1133132;-71
2022/01/05 00:03:56;;;;;;;;;;;13.10;99.90;;;;;;5063149;28;19996;-72
2022/01/05 00:06:22;;;;;;;;;;;13.10;99.90;;;;;;5046382;28;19915;-72
2022/01/05 00:08:47;;;;;;;;;;;13.10;99.90;;;;;;5047658;28;19924;-72
2022/01/05 00:11:14;;;;;;;;;;;13.00;99.90;;;;;;5046242;28;20002;-71
2022/01/05 00:13:42;;;;;;;;;;;13.00;99.90;;;;;;5044501;28;20656;-72
2022/01/05 00:16:08;;;;;;;;;;;13.00;99.90;;;;;;5048001;28;19904;-71
2022/01/05 00:18:33;;;;;;;;;;;13.00;99.90;;;;;;5061091;28;20352;-72
2022/01/05 00:21:01;;;;;;;;;;;12.90;99.90;;;;;;5051867;28;19909;-72
2022/01/05 00:23:27;;;;;;;;;;;12.90;99.90;;;;;;5040839;28;19908;-72
2022/01/05 00:25:54;;;;;;;;;;;12.90;99.90;;;;;;5051956;28;19959;-71
2022/01/05 00:28:21;;;;;;;;;;;12.90;99.90;;;;;;5041948;28;19908;-72
2022/01/05 00:30:46;;;;;;;;;;;13.00;99.90;;;;;;5051616;28;20505;-71
2022/01/05 00:33:13;;;;;;;;;;;13.00;99.90;;;;;;5061990;28;19912;-71
2022/01/05 00:35:38;;;;;;;;;;;13.00;99.90;;;;;;5043357;28;19958;-71
2022/01/05 00:38:06;;;;;;;;;;;12.90;99.90;;;;;;5046566;28;20289;-71
2022/01/05 00:40:31;;;;;;;;;;;12.80;99.90;;;;;;5059790;28;19908;-71
2022/01/05 00:42:59;;;;;;;;;;;12.80;99.90;;;;;;5048528;28;19912;-71
2022/01/05 00:45:26;;;;;;;;;;;12.80;99.90;;;;;;5044619;28;19962;-72
2022/01/05 00:47:52;;;;;;;;;;;12.70;99.90;;;;;;5052196;28;19943;-71
2022/01/05 00:50:18;;;;;;;;;;;12.60;99.90;;;;;;5044156;28;19920;-71
2022/01/05 00:52:44;;;;;;;;;;;12.60;99.90;;;;;;5046779;28;19909;-72
2022/01/05 00:55:12;;;;;;;;;;;12.50;99.90;;;;;;5049769;28;19919;-71
2022/01/05 00:57:37;;;;;;;;;;;12.50;99.90;;;;;;5041965;28;19909;-71
2022/01/05 01:00:04;;;;;;;;;;;12.40;99.90;;;;;;5050186;28;19943;-72
2022/01/05 01:02:29;;;;;;;;;;;12.40;99.90;;;;;;5025613;28;19904;-72
2022/01/05 01:04:56;;;;;;;;;;;12.40;99.90;;;;;;5046577;28;20234;-72
2022/01/05 01:07:21;;;;;;;;;;;12.40;99.90;;;;;;5046073;28;19966;-71
2022/01/05 01:09:49;;;;;;;;;;;12.40;99.90;;;;;;5045944;28;19959;-71
2022/01/05 01:12:14;;;;;;;;;;;12.40;99.90;;;;;;5049514;28;19983;-71
2022/01/05 01:14:43;;;;;;;;;;;12.30;99.90;;;;;;5043290;28;20003;-71
2022/01/05 01:17:08;;;;;;;;;;;12.30;99.90;;;;;;5026863;28;20286;-71
2022/01/05 01:19:34;;;;;;;;;;;12.30;99.90;;;;;;5046716;28;19942;-72
2022/01/05 01:21:59;;;;;;;;;;;12.30;99.90;;;;;;5022015;28;19909;-71
2022/01/05 01:24:29;;;;;;;;;;;12.30;99.90;;;;;;5045762;28;19908;-72
2022/01/05 01:26:54;;;;;;;;;;;12.30;99.90;;;;;;5042766;28;20281;-71
2022/01/05 01:29:23;;;;;;;;;;;12.20;99.90;;;;;;5042330;28;19913;-71
2022/01/05 01:31:50;;;;;;;;;;;12.20;99.90;;;;;;5050549;28;19908;-71
2022/01/05 01:34:16;;;;;;;;;;;12.20;99.90;;;;;;5049957;28;19912;-71
2022/01/05 01:36:41;;;;;;;;;;;12.20;99.90;;;;;;5044667;28;19908;-71
2022/01/05 01:39:08;;;;;;;;;;;12.10;99.90;;;;;;5051498;28;19953;-71
2022/01/05 01:41:34;;;;;;;;;;;12.10;99.90;;;;;;5024513;28;19919;-71
2022/01/05 01:43:59;;;;;;;;;;;12.20;99.90;;;;;;5033625;28;19905;-71
2022/01/05 01:46:25;;;;;;;;;;;12.10;99.90;;;;;;5050145;28;19915;-72
2022/01/05 01:48:52;;;;;;;;;;;12.10;99.90;;;;;;5045780;28;20017;-76
2022/01/05 01:51:19;;;;;;;;;;;12.20;99.90;;;;;;5050432;28;19965;-72
2022/01/05 01:53:44;;;;;;;;;;;12.20;99.90;;;;;;5049528;28;19960;-71
2022/01/05 01:56:11;;;;;;;;;;;12.20;99.90;;;;;;5049901;28;19963;-71
2022/01/05 01:58:37;;;;;;;;;;;12.20;99.90;;;;;;5046892;28;19916;-72
2022/01/05 02:01:03;;;;;;;;;;;12.10;99.90;;;;;;5053072;28;19913;-71
2022/01/05 02:03:31;;;;;;;;;;;12.10;99.90;;;;;;5052777;28;19912;-71
2022/01/05 02:05:57;;;;;;;;;;;12.00;99.90;;;;;;5048457;28;20720;-71
2022/01/05 02:08:23;;;;;;;;;;;12.00;99.90;;;;;;5050975;28;19996;-72
2022/01/05 02:10:49;;;;;;;;;;;11.90;99.90;;;;;;5053546;28;19904;-71
2022/01/05 02:13:16;;;;;;;;;;;11.90;99.90;;;;;;5054852;28;19916;-71
2022/01/05 02:15:43;;;;;;;;;;;11.80;99.90;;;;;;5051569;28;20035;-71
2022/01/05 02:20:34;;;;;;;;;;;11.70;99.90;;;;;;5047771;28;19936;-71
2022/01/05 02:23:00;;;;;;;;;;;11.60;99.90;;;;;;5053111;28;19980;-71
2022/01/05 02:25:26;;;;;;;;;;;11.60;99.90;;;;;;5047582;28;19913;-72
2022/01/05 02:27:55;;;;;;;;;;;11.70;99.90;;;;;;5055381;28;19904;-71
2022/01/05 02:30:22;;;;;;;;;;;11.60;99.90;;;;;;5047223;28;19905;-72
2022/01/05 02:32:48;;;;;;;;;;;11.60;99.90;;;;;;5051705;28;21170;-72
2022/01/05 02:35:14;;;;;;;;;;;11.50;99.90;;;;;;5048883;28;20239;-71
2022/01/05 02:37:45;;;;;;;;;;;11.50;99.90;;;;;;5026614;28;19909;-72
2022/01/05 02:40:13;;;;;;;;;;;11.50;99.90;;;;;;5052418;28;19909;-71
2022/01/05 02:42:39;;;;;;;;;;;11.40;99.90;;;;;;5046508;28;19908;-71
2022/01/05 02:45:05;;;;;;;;;;;11.40;99.90;;;;;;5045428;28;19999;-71
2022/01/05 02:47:31;;;;;;;;;;;11.50;99.90;;;;;;5048228;28;19991;-72
2022/01/05 02:49:57;;;;;;;;;;;11.50;99.90;;;;;;5054946;28;19947;-72
2022/01/05 02:52:23;;;;;;;;;;;11.40;99.90;;;;;;5052622;28;19954;-71
2022/01/05 02:54:49;;;;;;;;;;;11.50;99.90;;;;;;5047013;28;19948;-71
2022/01/05 02:57:15;;;;;;;;;;;11.60;99.90;;;;;;5048545;28;20175;-71
2022/01/05 02:59:41;;;;;;;;;;;11.50;99.90;;;;;;5051818;28;19908;-71
2022/01/05 03:02:07;;;;;;;;;;;11.40;99.90;;;;;;5049256;28;19918;-72
2022/01/05 03:04:33;;;;;;;;;;;11.40;99.90;;;;;;5049586;28;19901;-71
2022/01/05 03:06:59;;;;;;;;;;;11.40;99.90;;;;;;5030284;28;19968;-72
2022/01/05 03:09:25;;;;;;;;;;;11.40;99.90;;;;;;5049410;28;19912;-71
2022/01/05 03:11:51;;;;;;;;;;;11.50;99.90;;;;;;5053013;28;19912;-71
2022/01/05 03:14:17;;;;;;;;;;;11.50;99.90;;;;;;5050776;28;19923;-71
2022/01/05 03:16:44;;;;;;;;;;;11.40;99.90;;;;;;5045190;28;19962;-72
2022/01/05 03:19:09;;;;;;;;;;;11.50;99.90;;;;;;5045361;28;20375;-72
2022/01/05 03:21:35;;;;;;;;;;;11.30;99.90;;;;;;5053207;28;19936;-71
2022/01/05 03:24:00;;;;;;;;;;;11.20;99.90;;;;;;5044781;28;19931;-73
2022/01/05 03:26:32;;;;;;;;;;;11.20;99.90;;;;;;5050338;28;19905;-72
2022/01/05 03:28:57;;;;;;;;;;;11.10;99.90;;;;;;5045128;28;19954;-73
2022/01/05 03:31:23;;;;;;;;;;;11.00;99.90;;;;;;5049230;28;19912;-72
2022/01/05 03:33:50;;;;;;;;;;;11.00;99.90;;;;;;5048209;28;20381;-72
2022/01/05 03:36:17;;;;;;;;;;;10.90;99.90;;;;;;5042491;28;20906;-72
2022/01/05 03:38:43;;;;;;;;;;;10.80;99.90;;;;;;5047446;28;19908;-72
2022/01/05 03:41:08;;;;;;;;;;;10.80;99.90;;;;;;5050286;28;19911;-72
2022/01/05 03:43:34;;;;;;;;;;;10.70;99.90;;;;;;5027950;28;19987;-71
2022/01/05 03:46:00;;;;;;;;;;;10.70;99.90;;;;;;5028009;28;19905;-72
2022/01/05 03:48:25;;;;;;;;;;;10.60;99.90;;;;;;5038004;28;20343;-71
2022/01/05 03:50:54;;;;;;;;;;;10.60;99.90;;;;;;5049743;28;19908;-72
2022/01/05 03:53:20;;;;;;;;;;;10.60;99.90;;;;;;5048512;28;20007;-72
2022/01/05 03:55:46;;;;;;;;;;;10.60;99.90;;;;;;5044087;28;19913;-72
2022/01/05 03:58:13;;;;;;;;;;;10.60;99.90;;;;;;5049129;28;19911;-73
2022/01/05 04:00:46;;;;;;;;;;;10.60;99.90;;;;;;5035813;28;19912;-72
2022/01/05 04:03:12;;;;;;;;;;;10.50;99.90;;;;;;5052856;28;19919;-71
2022/01/05 04:05:39;;;;;;;;;;;10.50;99.90;;;;;;5048711;28;19904;-72
2022/01/05 04:08:05;;;;;;;;;;;10.40;99.90;;;;;;5060304;28;19909;-72
2022/01/05 04:10:30;;;;;;;;;;;10.40;99.90;;;;;;5045341;28;19931;-71
2022/01/05 04:12:56;;;;;;;;;;;10.30;99.90;;;;;;5048784;28;19916;-71
2022/01/05 04:15:22;;;;;;;;;;;10.30;99.90;;;;;;5049912;28;20469;-72
2022/01/05 04:17:47;;;;;;;;;;;10.30;99.90;;;;;;5047234;28;19920;-72
2022/01/05 04:20:14;;;;;;;;;;;10.20;99.90;;;;;;5045948;28;19948;-71
2022/01/05 04:22:41;;;;;;;;;;;10.10;99.90;;;;;;5045171;28;19912;-72
2022/01/05 04:25:07;;;;;;;;;;;10.10;99.90;;;;;;5046143;28;20917;-72
2022/01/05 04:27:33;;;;;;;;;;;10.00;99.90;;;;;;5053791;28;19905;-72
2022/01/05 04:29:59;;;;;;;;;;;10.00;99.90;;;;;;5041893;28;20282;-72
2022/01/05 04:32:24;;;;;;;;;;;10.00;99.90;;;;;;5049406;28;19916;-72
2022/01/05 04:34:50;;;;;;;;;;;10.00;99.90;;;;;;5044625;28;19915;-72
2022/01/05 04:37:15;;;;;;;;;;;9.90;99.90;;;;;;5044251;28;19912;-71
2022/01/05 04:39:41;;;;;;;;;;;9.90;99.90;;;;;;5064724;28;19916;-72
2022/01/05 04:42:08;;;;;;;;;;;9.80;99.90;;;;;;5055311;28;20030;-72
2022/01/05 04:44:34;;;;;;;;;;;9.80;99.90;;;;;;5067044;28;20003;-72
2022/01/05 04:47:01;;;;;;;;;;;9.90;99.90;;;;;;5058722;28;19908;-72
2022/01/05 04:49:26;;;;;;;;;;;9.90;99.90;;;;;;5047436;28;19958;-71
2022/01/05 04:51:52;;;;;;;;;;;9.90;99.90;;;;;;5042174;28;19905;-72
2022/01/05 04:54:17;;;;;;;;;;;9.80;99.90;;;;;;5039069;28;19917;-72
2022/01/05 04:56:43;;;;;;;;;;;9.80;99.90;;;;;;5046445;28;20058;-72
2022/01/05 04:59:09;;;;;;;;;;;9.80;99.90;;;;;;5045585;28;19942;-72
2022/01/05 05:01:34;;;;;;;;;;;9.80;99.90;;;;;;5051185;28;19919;-71
2022/01/05 05:04:00;;;;;;;;;;;9.70;99.90;;;;;;5035855;28;19912;-73
2022/01/05 05:06:25;;;;;;;;;;;9.70;99.90;;;;;;5045392;28;19909;-72
2022/01/05 05:08:51;;;;;;;;;;;9.60;99.90;;;;;;5045513;28;19913;-72
2022/01/05 05:11:18;;;;;;;;;;;9.50;99.90;;;;;;5047278;28;19912;-72
2022/01/05 05:13:44;;;;;;;;;;;9.50;99.90;;;;;;5027423;28;19909;-72
2022/01/05 05:16:10;;;;;;;;;;;9.40;99.90;;;;;;5044907;28;19904;-72
2022/01/05 05:18:36;;;;;;;;;;;9.40;99.90;;;;;;5048094;28;19908;-72
2022/01/05 05:21:02;;;;;;;;;;;9.30;99.90;;;;;;5042375;28;20007;-72
2022/01/05 05:23:28;;;;;;;;;;;9.30;99.90;;;;;;5030256;28;19905;-72
2022/01/05 05:25:54;;;;;;;;;;;9.20;99.90;;;;;;5046665;28;19908;-72
2022/01/05 05:28:21;;;;;;;;;;;9.10;99.90;;;;;;5043598;28;19912;-72
2022/01/05 05:30:49;;;;;;;;;;;9.00;99.90;;;;;;5043065;28;20304;-72
2022/01/05 05:33:14;;;;;;;;;;;8.90;99.90;;;;;;5044992;28;19915;-72
2022/01/05 05:35:42;;;;;;;;;;;8.80;99.90;;;;;;5045158;28;19979;-72
2022/01/05 05:38:10;;;;;;;;;;;8.70;99.90;;;;;;5042768;28;19913;-72
2022/01/05 05:40:36;;;;;;;;;;;8.70;99.90;;;;;;5025678;28;20056;-72
2022/01/05 05:43:02;;;;;;;;;;;8.60;99.90;;;;;;5045118;28;19909;-72
2022/01/05 05:45:28;;;;;;;;;;;8.60;99.90;;;;;;5044132;28;19909;-72
2022/01/05 05:47:54;;;;;;;;;;;8.50;99.90;;;;;;5047868;28;19904;-72
2022/01/05 05:50:19;;;;;;;;;;;8.50;99.90;;;;;;5041745;28;19930;-72
2022/01/05 05:52:45;;;;;;;;;;;8.50;99.90;;;;;;5050157;28;21376;-73
2022/01/05 05:55:11;;;;;;;;;;;8.40;99.90;;;;;;5044059;28;19966;-72
2022/01/05 05:57:38;;;;;;;;;;;8.30;99.90;;;;;;5044649;28;19912;-71
2022/01/05 06:00:04;;;;;;;;;;;8.30;99.90;;;;;;5042356;28;19923;-72
2022/01/05 06:02:32;;;;;;;;;;;8.20;99.90;;;;;;5051707;28;19951;-71
2022/01/05 06:04:59;;;;;;;;;;;8.20;99.90;;;;;;5019947;28;19908;-71
2022/01/05 06:07:24;;;;;;;;;;;8.10;99.90;;;;;;5048586;28;19908;-71
2022/01/05 06:09:52;;;;;;;;;;;8.10;99.90;;;;;;5044306;28;19912;-72
2022/01/05 06:12:17;;;;;;;;;;;8.20;99.90;;;;;;5045032;28;19913;-71
2022/01/05 06:14:43;;;;;;;;;;;8.10;99.90;;;;;;5028350;28;19918;-72
2022/01/05 06:17:09;;;;;;;;;;;8.10;99.90;;;;;;5040963;28;20433;-71
2022/01/05 06:19:34;;;;;;;;;;;8.10;99.90;;;;;;5021940;28;19950;-71
2022/01/05 06:22:00;;;;;;;;;;;8.10;99.90;;;;;;5043102;28;19920;-72
2022/01/05 06:24:25;;;;;;;;;;;8.10;99.90;;;;;;5044566;28;19912;-72
2022/01/05 06:26:54;;;;;;;;;;;8.00;99.90;;;;;;5047764;28;19904;-72
2022/01/05 06:29:21;;;;;;;;;;;8.10;99.90;;;;;;5052338;28;19962;-72
2022/01/05 06:31:47;;;;;;;;;;;8.10;99.90;;;;;;5051599;28;20341;-71
2022/01/05 06:34:13;;;;;;;;;;;8.10;99.90;;;;;;5026252;28;19908;-71
2022/01/05 06:36:40;;;;;;;;;;;8.10;99.90;;;;;;5055121;28;19982;-71
2022/01/05 06:39:06;;;;;;;;;;;8.20;99.90;;;;;;5045679;28;19908;-71
2022/01/05 06:41:32;;;;;;;;;;;8.20;99.90;;;;;;5049442;28;19911;-71
2022/01/05 06:43:58;;;;;;;;;;;8.20;99.90;;;;;;5045343;28;19904;-72
2022/01/05 06:46:24;;;;;;;;;;;8.20;99.90;;;;;;5050781;28;19909;-71
2022/01/05 06:48:50;;;;;;;;;;;8.20;99.90;;;;;;5042176;28;19948;-71
2022/01/05 06:51:15;;;;;;;;;;;8.10;99.90;;;;;;5049663;28;19940;-71
2022/01/05 06:53:42;;;;;;;;;;;8.10;99.90;;;;;;5049498;28;19915;-71
2022/01/05 06:56:08;;;;;;;;;;;8.10;99.90;;;;;;5050780;28;19950;-72
2022/01/05 06:58:37;;;;;;;;;;;8.10;99.90;;;;;;5041678;28;19909;-72
2022/01/05 07:01:02;;;;;;;;;;;8.10;99.90;;;;;;5052468;28;19913;-71
2022/01/05 07:03:28;;;;;;;;;;;8.10;99.90;;;;;;5048602;28;19985;-71
2022/01/05 07:05:55;;;;;;;;;;;8.10;99.90;;;;;;5046811;28;19908;-71
2022/01/05 07:08:20;;;;;;;;;;;8.10;99.90;;;;;;5047320;28;19905;-71
2022/01/05 07:10:47;;;;;;;;;;;8.10;99.90;;;;;;5048140;28;19912;-71
2022/01/05 07:13:13;;;;;;;;;;;8.10;99.90;;;;;;5045976;28;20513;-72
2022/01/05 07:15:39;;;;;;;;;;;8.20;99.90;;;;;;5041041;28;19955;-72
2022/01/05 07:18:04;;;;;;;;;;;8.20;99.90;;;;;;5048024;28;19952;-72
2022/01/05 07:20:30;;;;;;;;;;;8.20;99.90;;;;;;5041779;28;19995;-72
2022/01/05 07:22:59;;;;;;;;;;;8.20;99.90;;;;;;5053564;28;19904;-71
2022/01/05 07:25:26;;;;;;;;;;;8.10;99.90;;;;;;5046931;28;19908;-71
2022/01/05 07:27:51;;;;;;;;;;;8.10;99.90;;;;;;5049061;28;19904;-70
2022/01/05 07:30:19;;;;;;;;;;;8.10;99.90;;;;;;5046141;28;21108;-71
2022/01/05 07:32:45;;;;;;;;;;;8.10;99.90;;;;;;5045990;28;19908;-72
2022/01/05 07:35:10;;;;;;;;;;;8.10;99.90;;;;;;5047917;28;20472;-72
2022/01/05 07:37:36;;;;;;;;;;;8.20;99.90;;;;;;5027631;28;20272;-72
2022/01/05 07:40:02;;;;;;;;;;;8.20;99.90;;;;;;5034688;28;19909;-72
2022/01/05 07:42:33;;;;;;;;;;;8.10;99.90;;;;;;5049508;28;19998;-72
2022/01/05 07:44:59;;;;;;;;;;;8.10;99.90;;;;;;5042955;28;19909;-72
2022/01/05 07:47:25;;;;;;;;;;;8.00;99.90;;;;;;5026851;28;19963;-72
2022/01/05 07:49:51;;;;;;;;;;;8.00;99.90;;;;;;5026163;28;19905;-71
2022/01/05 07:52:16;;;;;;;;;;;7.90;99.90;;;;;;5049805;28;19982;-74
2022/01/05 07:54:42;;;;;;;;;;;7.90;99.90;;;;;;5052343;28;19909;-73
2022/01/05 07:57:11;;;;;;;;;;;7.90;99.90;;;;;;5045024;28;19990;-73
2022/01/05 07:59:40;;;;;;;;;;;7.90;99.90;;;;;;5034731;28;20415;-72
2022/01/05 08:02:12;;;;;;;;;;;7.80;99.90;;;;;;5043037;28;19921;-73
2022/01/05 08:04:37;;;;;;;;;;;7.80;99.90;;;;;;5053641;28;20350;-72
2022/01/05 08:07:05;;;;;;;;;;;7.70;99.90;;;;;;5039484;28;19904;-73
2022/01/05 08:09:30;;;;;;;;;;;7.70;99.90;;;;;;5044022;28;19904;-72
2022/01/05 08:11:59;;;;;;;;;;;7.70;99.90;;;;;;5026116;28;19930;-72
2022/01/05 08:14:25;;;;;;;;;;;7.80;99.90;;;;;;5046519;28;19998;-73
2022/01/05 08:16:50;;;;;;;;;;;7.80;99.90;;;;;;5029367;28;20337;-72
2022/01/05 08:19:16;;;;;;;;;;;7.80;99.90;;;;;;5041901;28;19913;-72
2022/01/05 08:21:41;;;;;;;;;;;7.80;99.90;;;;;;5050965;28;19905;-72
2022/01/05 08:24:08;;;;;;;;;;;7.70;99.90;;;;;;5045265;28;19908;-72
2022/01/05 08:26:34;;;;;;;;;;;7.70;99.90;;;;;;5049503;28;19904;-72
2022/01/05 08:29:00;;;;;;;;;;;7.70;99.90;;;;;;5042661;28;19908;-72
2022/01/05 08:31:26;;;;;;;;;;;7.60;99.90;;;;;;5047107;28;19959;-72
2022/01/05 08:33:52;;;;;;;;;;;7.60;99.90;;;;;;5051628;28;19969;-72
2022/01/05 08:36:17;;;;;;;;;;;7.60;99.90;;;;;;5049498;28;19913;-72
2022/01/05 08:38:43;;;;;;;;;;;7.60;99.90;;;;;;5049545;28;19911;-72
2022/01/05 08:41:09;;;;;;;;;;;7.60;99.90;;;;;;5044132;28;19954;-79
2022/01/05 08:43:34;;;;;;;;;;;7.60;99.90;;;;;;5051625;28;19908;-71
2022/01/05 08:46:01;;;;;;;;;;;7.60;99.90;;;;;;5042570;28;19935;-72
2022/01/05 08:48:26;;;;;;;;;;;7.50;99.90;;;;;;5050559;28;19908;-72
2022/01/05 08:50:52;;;;;;;;;;;7.50;99.90;;;;;;5048866;28;19904;-73
2022/01/05 08:53:18;;;;;;;;;;;7.50;99.90;;;;;;5037383;28;19916;-75
2022/01/05 08:55:46;;;;;;;;;;;7.50;99.90;;;;;;5035584;28;20387;-76
2022/01/05 08:58:13;;;;;;;;;;;7.50;99.90;;;;;;5046357;28;19906;-72
2022/01/05 09:00:38;;;;;;;;;;;7.50;99.90;;;;;;5032300;28;20621;-73
2022/01/05 09:03:06;;;;;;;;;;;7.40;99.90;;;;;;5041797;28;19908;-72
2022/01/05 09:05:32;;;;;;;;;;;7.40;99.90;;;;;;5039075;28;19911;-71
2022/01/05 09:07:58;;;;;;;;;;;7.40;99.90;;;;;;5042311;28;20454;-73
2022/01/05 09:10:25;;;;;;;;;;;7.40;99.90;;;;;;5047108;28;19957;-76
2022/01/05 09:12:53;;;;;;;;;;;7.40;99.90;;;;;;5050637;28;19913;-76
2022/01/05 09:15:19;;;;;;;;;;;7.30;99.90;;;;;;5044912;28;19962;-73
2022/01/05 09:17:45;;;;;;;;;;;7.30;99.90;;;;;;5051234;28;19904;-72
2022/01/05 09:20:12;;;;;;;;;;;7.20;99.90;;;;;;5044067;28;19910;-74
2022/01/05 09:22:39;;;;;;;;;;;7.20;99.90;;;;;;5046969;28;20004;-73
2022/01/05 09:25:10;;;;;;;;;;;7.40;99.90;;;;;;5040867;28;19931;-72
2022/01/05 09:27:35;;;;;;;;;;;7.10;99.90;;;;;;5052301;28;19905;-77
2022/01/05 09:30:02;;;;;;;;;;;7.10;99.90;;;;;;5058949;28;20567;-73
2022/01/05 09:32:28;;;;;;;;;;;7.00;99.90;;;;;;5049704;28;19904;-73
2022/01/05 09:34:54;;;;;;;;;;;7.00;99.90;;;;;;5047298;28;19909;-73
2022/01/05 09:37:24;;;;;;;;;;;7.00;99.90;;;;;;5054478;28;19923;-76
2022/01/05 09:42:36;;;;;;;;;;;6.90;99.90;;;;;;5053375;28;20005;-75
2022/01/05 09:45:19;;;;;;;;;;;6.90;99.90;;;;;;5042614;28;19927;-73
2022/01/05 09:48:03;;;;;;;;;;;6.90;99.90;;;;;;5048243;28;19911;-74
2022/01/05 09:50:31;;;;;;;;;;;6.90;99.90;;;;;;5043230;28;20239;-73
2022/01/05 09:52:57;;;;;;;;;;;6.90;99.90;;;;;;5040538;28;19909;-74
2022/01/05 09:55:23;;;;;;;;;;;6.90;99.90;;;;;;5058897;28;20639;-73
2022/01/05 09:57:48;;;;;;;;;;;6.80;99.90;;;;;;5046850;28;19912;-75
2022/01/05 10:00:15;;;;;;;;;;;6.80;99.90;;;;;;5040613;28;19997;-73
2022/01/05 10:02:42;;;;;;;;;;;6.90;99.90;;;;;;5052021;28;19916;-73
2022/01/05 10:05:09;;;;;;;;;;;6.90;99.90;;;;;;5044446;28;19904;-72
2022/01/05 10:07:36;;;;;;;;;;;7.00;99.90;;;;;;5052154;28;19909;-73
2022/01/05 10:10:01;;;;;;;;;;;7.00;99.90;;;;;;5048007;28;19950;-76
2022/01/05 10:12:28;;;;;;;;;;;7.00;99.90;;;;;;5032556;28;19938;-77
2022/01/05 10:14:54;;;;;;;;;;;7.10;99.90;;;;;;5053766;28;19916;-73
2022/01/05 10:17:23;;;;;;;;;;;7.10;99.90;;;;;;5042653;28;19913;-77
2022/01/05 10:20:09;;;;;;;;;;;7.10;99.90;;;;;;5049314;28;20018;-73
2022/01/05 10:22:39;;;;;;;;;;;7.10;99.90;;;;;;5046449;28;19974;-73
2022/01/05 10:25:25;;;;;;;;;;;7.00;99.90;;;;;;5048389;28;20379;-74
2022/01/05 10:28:01;;;;;;;;;;;7.00;99.90;;;;;;5053673;28;20307;-73
2022/01/05 10:30:43;;;;;;;;;;;7.00;99.90;;;;;;5050174;28;19908;-73
2022/01/05 10:33:09;;;;;;;;;;;7.00;99.90;;;;;;5048905;28;19911;-72
2022/01/05 10:35:35;;;;;;;;;;;7.00;99.90;;;;;;5052951;28;20000;-73
2022/01/05 10:38:15;;;;;;;;;;;7.10;99.90;;;;;;5044703;28;19905;-72
2022/01/05 10:40:43;;;;;;;;;;;7.10;99.90;;;;;;5033501;28;20391;-75
2022/01/05 10:43:09;;;;;;;;;;;7.10;99.90;;;;;;5042519;28;19905;-75
2022/01/05 10:45:41;;;;;;;;;;;7.10;99.90;;;;;;5054900;28;20294;-73
2022/01/05 10:48:09;;;;;;;;;;;7.10;99.90;;;;;;5031193;28;19908;-73
2022/01/05 10:50:37;;;;;;;;;;;7.10;99.90;;;;;;5049022;28;19919;-74
2022/01/05 10:53:03;;;;;;;;;;;7.10;99.90;;;;;;5032691;28;19958;-75
2022/01/05 10:55:30;;;;;;;;;;;7.10;99.90;;;;;;5026667;28;19959;-73
2022/01/05 10:58:03;;;;;;;;;;;7.10;99.90;;;;;;5053627;28;19905;-74
2022/01/05 11:00:31;;;;;;;;;;;7.10;99.90;;;;;;5048401;28;19912;-72
2022/01/05 11:02:57;;;;;;;;;;;7.10;99.90;;;;;;5048126;28;19991;-76
2022/01/05 11:05:22;;;;;;;;;;;7.10;99.90;;;;;;5051193;28;19995;-73
2022/01/05 11:07:49;;;;;;;;;;;7.20;99.90;;;;;;5045223;28;19915;-74
2022/01/05 11:10:16;;;;;;;;;;;7.10;99.90;;;;;;5047064;28;19905;-71
2022/01/05 11:12:43;;;;;;;;;;;7.10;99.90;;;;;;5033179;28;19927;-73
2022/01/05 11:15:19;;;;;;;;;;;7.10;99.90;;;;;;5032256;28;19912;-72
2022/01/05 11:18:04;;;;;;;;;;;7.00;99.90;;;;;;5044449;28;19944;-73
2022/01/05 11:20:30;;;;;;;;;;;7.10;99.90;;;;;;5016804;28;19954;-72
2022/01/05 11:22:56;;;;;;;;;;;7.00;99.90;;;;;;5053308;28;19908;-73
2022/01/05 11:25:23;;;;;;;;;;;7.00;99.90;;;;;;5049045;28;20011;-71
2022/01/05 11:27:50;;;;;;;;;;;7.00;99.90;;;;;;5041189;28;20089;-72
2022/01/05 11:30:15;;;;;;;;;;;7.00;99.90;;;;;;5046370;28;19959;-72
2022/01/05 11:32:41;;;;;;;;;;;7.00;99.90;;;;;;5040775;28;20277;-73
2022/01/05 11:35:07;;;;;;;;;;;7.00;99.90;;;;;;5053884;28;19995;-75
2022/01/05 11:37:34;;;;;;;;;;;6.90;99.90;;;;;;5047948;28;19911;-75
2022/01/05 11:40:03;;;;;;;;;;;6.90;99.90;;;;;;5030811;28;19916;-76
2022/01/05 11:42:30;;;;;;;;;;;7.00;99.90;;;;;;5048405;28;19904;-74
2022/01/05 11:44:57;;;;;;;;;;;7.00;99.90;;;;;;5050176;28;19917;-73
2022/01/05 11:47:30;;;;;;;;;;;7.00;99.90;;;;;;5045146;28;19905;-78
2022/01/05 11:50:14;;;;;;;;;;;7.00;99.90;;;;;;5055303;28;19958;-72
2022/01/05 11:52:56;;;;;;;;;;;7.00;99.90;;;;;;5045897;28;19959;-75
2022/01/05 11:55:22;;;;;;;;;;;7.00;99.90;;;;;;5053833;28;19916;-76
2022/01/05 11:58:06;;;;;;;;;;;7.00;99.90;;;;;;5044651;28;19919;-72
2022/01/05 12:00:32;;;;;;;;;;;7.00;99.90;;;;;;5045089;28;19923;-75
2022/01/05 12:02:58;;;;;;;;;;;7.00;99.90;;;;;;5049542;28;19916;-72
2022/01/05 12:05:24;;;;;;;;;;;6.90;99.90;;;;;;5058692;28;19915;-72
2022/01/05 12:07:51;;;;;;;;;;;6.90;99.90;;;;;;5044182;28;19909;-73
2022/01/05 12:10:21;;;;;;;;;;;7.00;99.90;;;;;;5047304;28;19914;-72
2022/01/05 12:12:52;;;;;;;;;;;7.00;99.90;;;;;;5021042;28;19967;-72
2022/01/05 12:15:38;;;;;;;;;;;7.00;99.90;;;;;;5044247;28;19969;-74
2022/01/05 12:18:06;;;;;;;;;;;7.00;99.90;;;;;;5043631;28;19908;-75
2022/01/05 12:20:36;;;;;;;;;;;7.00;99.90;;;;;;5018168;28;19962;-72
2022/01/05 12:23:25;;;;;;;;;;;7.00;99.90;;;;;;5046528;28;19908;-72
2022/01/05 12:28:30;;;;;;;;;;;7.10;99.90;;;;;;5040263;28;20315;-71
2022/01/05 12:30:55;;;;;;;;;;;7.10;99.90;;;;;;5050410;28;20398;-73
2022/01/05 12:33:22;;;;;;;;;;;7.10;99.90;;;;;;5053086;28;19944;-72
2022/01/05 12:35:52;;;;;;;;;;;7.10;99.90;;;;;;5039405;28;19913;-72
2022/01/05 12:38:36;;;;;;;;;;;7.10;99.90;;;;;;5024154;28;20003;-71
2022/01/05 12:41:17;;;;;;;;;;;7.10;99.90;;;;;;5043447;28;19904;-71
2022/01/05 12:43:45;;;;;;;;;;;7.10;99.90;;;;;;5038269;28;21306;-70
2022/01/05 12:46:11;;;;;;;;;;;7.10;99.90;;;;;;5044027;28;20377;-70
2022/01/05 12:48:39;;;;;;;;;;;7.10;99.90;;;;;;5040006;28;19915;-73
2022/01/05 12:51:22;;;;;;;;;;;7.20;99.90;;;;;;5043191;28;19905;-70
2022/01/05 12:54:01;;;;;;;;;;;7.20;99.90;;;;;;5038720;28;19912;-69
2022/01/05 12:56:30;;;;;;;;;;;7.10;99.90;;;;;;5022610;28;20318;-72
2022/01/05 12:58:57;;;;;;;;;;;7.10;99.90;;;;;;5045741;28;19943;-70
2022/01/05 13:01:23;;;;;;;;;;;7.10;99.90;;;;;;5028171;28;19920;-70
2022/01/05 13:03:52;;;;;;;;;;;7.10;99.90;;;;;;5037985;28;20396;-71
2022/01/05 13:06:18;;;;;;;;;;;7.20;99.90;;;;;;5039085;28;19920;-71
2022/01/05 13:08:51;;;;;;;;;;;7.10;99.90;;;;;;5041410;28;20415;-70
2022/01/05 13:11:37;;;;;;;;;;;7.10;99.90;;;;;;5043922;28;19913;-74
2022/01/05 13:14:21;;;;;;;;;;;7.10;99.90;;;;;;5061825;28;19909;-77
2022/01/05 13:16:47;;;;;;;;;;;7.30;99.90;;;;;;5044395;28;21357;-71
2022/01/05 13:19:21;;;;;;;;;;;7.50;99.90;;;;;;5043535;28;19920;-69
2022/01/05 13:21:47;;;;;;;;;;;7.40;99.90;;;;;;5038112;28;19978;-69
2022/01/05 13:24:15;;;;;;;;;;;7.40;99.90;;;;;;5050960;28;19916;-69
2022/01/05 13:26:59;;;;;;;;;;;7.30;99.90;;;;;;5043994;28;19913;-69
2022/01/05 13:29:28;;;;;;;;;;;7.30;99.90;;;;;;5044986;28;19908;-68
2022/01/05 13:31:57;;;;;;;;;;;7.20;99.90;;;;;;5032586;28;19909;-69
2022/01/05 13:34:30;;;;;;;;;;;7.20;99.90;;;;;;5044664;28;20454;-69
2022/01/05 13:36:56;;;;;;;;;;;7.20;99.90;;;;;;5041104;28;20481;-69
2022/01/05 13:39:34;;;;;;;;;;;7.30;99.90;;;;;;5045816;28;19919;-69
2022/01/05 13:41:59;;;;;;;;;;;7.20;99.90;;;;;;5058657;28;19908;-69
2022/01/05 13:44:26;;;;;;;;;;;7.20;99.90;;;;;;5046073;28;20640;-69
2022/01/05 13:46:51;;;;;;;;;;;7.20;99.90;;;;;;5045431;28;20023;-70
2022/01/05 13:49:17;;;;;;;;;;;7.20;99.90;;;;;;5045897;28;20027;-70
2022/01/05 13:51:59;;;;;;;;;;;7.20;99.90;;;;;;5041718;28;19913;-70
2022/01/05 13:54:25;;;;;;;;;;;7.20;99.90;;;;;;5049445;28;20346;-71
2022/01/05 13:56:51;;;;;;;;;;;7.20;99.90;;;;;;5040439;28;19969;-69
2022/01/05 13:59:17;;;;;;;;;;;7.20;99.90;;;;;;5042451;28;20354;-69
2022/01/05 14:01:54;;;;;;;;;;;7.10;99.90;;;;;;5047620;28;19920;-68
2022/01/05 14:04:19;;;;;;;;;;;7.10;99.90;;;;;;5029965;28;19978;-70
2022/01/05 14:06:45;;;;;;;;;;;7.10;99.90;;;;;;5024699;28;20015;-69
2022/01/05 14:09:11;;;;;;;;;;;7.10;99.90;;;;;;5044358;28;19908;-69
2022/01/05 14:11:36;;;;;;;;;;;7.10;99.90;;;;;;5039926;28;20613;-69
2022/01/05 14:14:09;;;;;;;;;;;7.10;99.90;;;;;;5048313;28;19916;-70
2022/01/05 14:16:41;;;;;;;;;;;7.10;99.90;;;;;;5045739;28;20552;-69
2022/01/05 14:19:26;;;;;;;;;;;7.10;99.90;;;;;;5025339;28;19984;-69
2022/01/05 14:22:01;;;;;;;;;;;7.10;99.90;;;;;;5042733;28;20760;-69
2022/01/05 14:24:34;;;;;;;;;;;7.00;99.90;;;;;;5048259;28;19908;-70
2022/01/05 14:26:59;;;;;;;;;;;7.00;99.90;;;;;;5046394;28;20231;-70
2022/01/05 14:29:26;;;;;;;;;;;7.00;99.90;;;;;;5044691;28;19915;-69
2022/01/05 14:31:52;;;;;;;;;;;7.00;99.90;;;;;;5045971;28;19991;-69
2022/01/05 14:34:20;;;;;;;;;;;6.90;99.90;;;;;;5048596;28;19920;-69
2022/01/05 14:36:47;;;;;;;;;;;6.90;99.90;;;;;;5043424;28;19999;-69